createdAt,value
2022-12-17T00:02:19.499Z,9.91
2022-12-17T00:05:05.052Z,9.74
2022-12-17T00:07:49.860Z,9.39
2022-12-17T00:10:35.318Z,9.02
2022-12-17T00:13:20.778Z,8.91
2022-12-17T00:16:12.311Z,8.64
2022-12-17T00:18:57.499Z,8.77
2022-12-17T00:21:43.143Z,8.65
2022-12-17T00:24:28.054Z,8.66
2022-12-17T00:27:13.009Z,8.54
2022-12-17T00:29:58.410Z,8.40
2022-12-17T00:32:43.801Z,8.37
2022-12-17T00:35:28.665Z,8.52
2022-12-17T00:38:14.276Z,8.38
2022-12-17T00:40:59.732Z,8.38
2022-12-17T00:43:44.908Z,8.18
2022-12-17T00:46:30.421Z,8.30
2022-12-17T00:49:15.993Z,8.23
2022-12-17T00:52:01.527Z,8.08
2022-12-17T00:54:46.506Z,8.15
2022-12-17T00:57:31.804Z,8.18
2022-12-17T01:00:17.395Z,8.13
2022-12-17T01:03:02.661Z,8.00
2022-12-17T01:05:48.043Z,8.09
2022-12-17T01:08:34.358Z,8.19
2022-12-17T01:11:21.333Z,8.21
2022-12-17T01:14:06.758Z,8.23
2022-12-17T01:16:52.760Z,8.31
2022-12-17T01:19:41.309Z,7.95
2022-12-17T01:22:37.439Z,8.27
2022-12-17T01:25:22.743Z,8.68
2022-12-17T01:28:09.517Z,8.97
2022-12-17T01:30:56.726Z,9.03
2022-12-17T01:33:42.187Z,9.08
2022-12-17T01:36:28.687Z,9.05
2022-12-17T01:39:14.140Z,9.31
2022-12-17T01:41:59.616Z,9.32
2022-12-17T01:45:05.561Z,9.34
2022-12-17T01:48:23.869Z,9.39
2022-12-17T01:51:14.879Z,9.10
2022-12-17T01:54:07.773Z,9.10
2022-12-17T01:56:55.983Z,9.21
2022-12-17T01:59:52.919Z,9.26
2022-12-17T02:02:42.947Z,9.34
2022-12-17T02:05:28.428Z,9.38
2022-12-17T02:08:52.376Z,9.54
2022-12-17T02:12:07.599Z,9.69
2022-12-17T02:15:00.214Z,9.59
2022-12-17T02:17:53.839Z,9.59
2022-12-17T02:20:48.925Z,9.78
2022-12-17T02:24:06.597Z,9.79
2022-12-17T02:26:58.125Z,9.86
2022-12-17T02:29:56.636Z,10.06
2022-12-17T02:32:43.603Z,9.96
2022-12-17T02:35:36.517Z,9.78
2022-12-17T02:38:38.915Z,9.57
2022-12-17T02:41:25.095Z,9.58
2022-12-17T02:44:11.915Z,9.50
2022-12-17T02:47:00.396Z,9.48
2022-12-17T02:49:45.736Z,9.45
2022-12-17T02:52:34.873Z,9.65
2022-12-17T02:55:20.462Z,9.88
2022-12-17T02:58:05.578Z,10.04
2022-12-17T03:00:50.991Z,10.10
2022-12-17T03:03:36.516Z,10.25
2022-12-17T03:06:22.934Z,10.35
2022-12-17T03:09:08.371Z,10.50
2022-12-17T03:11:53.878Z,10.28
2022-12-17T03:14:39.356Z,10.41
2022-12-17T03:17:24.508Z,10.34
2022-12-17T03:20:09.974Z,10.45
2022-12-17T03:22:55.503Z,10.35
2022-12-17T03:25:40.832Z,10.47
2022-12-17T03:28:29.823Z,10.45
2022-12-17T03:31:19.124Z,10.37
2022-12-17T03:34:04.987Z,10.53
2022-12-17T03:36:50.347Z,10.54
2022-12-17T03:39:35.877Z,10.76
2022-12-17T03:42:20.873Z,10.60
2022-12-17T03:45:06.373Z,10.89
2022-12-17T03:47:51.753Z,10.81
2022-12-17T03:50:37.001Z,10.89
2022-12-17T03:53:23.157Z,11.13
2022-12-17T03:56:08.309Z,11.23
2022-12-17T03:58:53.342Z,11.35
2022-12-17T04:01:38.644Z,11.14
2022-12-17T04:04:23.957Z,11.20
2022-12-17T04:07:09.334Z,11.38
2022-12-17T04:09:54.429Z,11.37
2022-12-17T04:12:39.675Z,11.49
2022-12-17T04:15:25.166Z,11.55
2022-12-17T04:18:10.309Z,11.58
2022-12-17T04:20:55.301Z,11.53
2022-12-17T04:23:40.360Z,11.60
2022-12-17T04:26:25.223Z,11.72
2022-12-17T04:29:10.548Z,11.53
2022-12-17T04:31:55.957Z,11.32
2022-12-17T04:34:40.617Z,11.56
2022-12-17T04:37:25.479Z,11.24
2022-12-17T04:40:10.611Z,11.17
2022-12-17T04:42:55.777Z,11.42
2022-12-17T04:45:40.738Z,11.56
2022-12-17T04:48:27.545Z,11.69
2022-12-17T04:51:13.119Z,11.75
2022-12-17T04:53:58.394Z,11.52
2022-12-17T04:56:44.022Z,11.45
2022-12-17T04:59:29.376Z,11.62
2022-12-17T05:02:14.901Z,11.77
2022-12-17T05:05:00.236Z,11.89
2022-12-17T05:07:45.535Z,11.95
2022-12-17T05:10:30.966Z,11.71
2022-12-17T05:13:17.328Z,11.70
2022-12-17T05:16:02.674Z,11.61
2022-12-17T05:18:48.207Z,11.52
2022-12-17T05:21:33.772Z,11.48
2022-12-17T05:24:19.385Z,11.68
2022-12-17T05:27:04.634Z,11.52
2022-12-17T05:30:06.851Z,11.69
2022-12-17T05:32:52.054Z,11.90
2022-12-17T05:35:37.415Z,11.51
2022-12-17T05:38:24.336Z,11.39
2022-12-17T05:41:10.213Z,11.54
2022-12-17T05:43:55.677Z,11.58
2022-12-17T05:46:40.916Z,11.50
2022-12-17T05:49:25.806Z,11.64
2022-12-17T05:52:11.413Z,11.72
2022-12-17T05:54:56.347Z,11.67
2022-12-17T06:00:54.599Z,11.50
2022-12-17T06:03:40.196Z,11.49
2022-12-17T06:06:25.784Z,11.68
2022-12-17T06:09:10.755Z,11.74
2022-12-17T06:12:00.987Z,11.70
2022-12-17T06:14:47.761Z,11.39
2022-12-17T06:17:33.159Z,11.34
2022-12-17T06:20:18.171Z,11.28
2022-12-17T06:23:02.994Z,11.35
2022-12-17T06:25:48.015Z,11.38
2022-12-17T06:28:32.906Z,11.63
2022-12-17T06:31:18.183Z,11.47
2022-12-17T06:34:03.476Z,11.44
2022-12-17T06:36:48.718Z,11.59
2022-12-17T06:39:44.787Z,11.33
2022-12-17T06:42:46.918Z,11.32
2022-12-17T06:45:32.247Z,11.43
2022-12-17T06:48:21.706Z,11.39
2022-12-17T06:51:07.116Z,11.45
2022-12-17T06:53:52.425Z,11.29
2022-12-17T06:56:37.886Z,11.18
2022-12-17T06:59:23.330Z,11.08
2022-12-17T07:02:08.950Z,11.13
2022-12-17T07:04:54.424Z,11.13
2022-12-17T07:07:40.016Z,11.27
2022-12-17T07:10:25.922Z,11.55
2022-12-17T07:13:21.629Z,11.40
2022-12-17T07:16:06.940Z,11.29
2022-12-17T07:19:06.163Z,11.23
2022-12-17T07:21:51.500Z,11.24
2022-12-17T07:24:36.530Z,11.14
2022-12-17T07:27:21.939Z,11.39
2022-12-17T07:30:07.491Z,11.28
2022-12-17T07:32:52.539Z,11.40
2022-12-17T07:35:37.899Z,11.50
2022-12-17T07:38:23.920Z,11.55
2022-12-17T07:41:09.295Z,11.54
2022-12-17T07:43:54.717Z,11.48
2022-12-17T07:46:40.104Z,11.55
2022-12-17T07:49:26.160Z,11.74
2022-12-17T07:52:19.697Z,11.51
2022-12-17T07:55:05.367Z,11.82
2022-12-17T07:57:50.648Z,11.58
2022-12-17T08:00:35.708Z,11.65
2022-12-17T08:03:21.090Z,11.71
2022-12-17T08:06:06.631Z,11.69
2022-12-17T08:08:51.847Z,11.72
2022-12-17T08:11:37.099Z,12.00
2022-12-17T08:14:22.862Z,12.03
2022-12-17T08:17:08.058Z,11.97
2022-12-17T08:19:53.637Z,11.88
2022-12-17T08:22:39.154Z,11.94
2022-12-17T08:25:24.800Z,12.04
2022-12-17T08:28:41.611Z,12.17
2022-12-17T08:31:22.661Z,12.25
2022-12-17T08:34:08.410Z,12.30
2022-12-17T08:36:53.847Z,12.62
2022-12-17T08:39:39.390Z,12.66
2022-12-17T08:42:24.864Z,12.66
2022-12-17T08:45:10.220Z,12.52
2022-12-17T08:47:59.243Z,12.71
2022-12-17T08:50:48.874Z,12.83
2022-12-17T08:53:35.138Z,13.01
2022-12-17T08:56:20.460Z,13.00
2022-12-17T08:59:05.458Z,13.08
2022-12-17T09:01:51.024Z,13.45
2022-12-17T09:04:36.377Z,13.55
2022-12-17T09:07:21.726Z,13.66
2022-12-17T09:10:06.708Z,13.59
2022-12-17T09:12:52.081Z,13.43
2022-12-17T09:15:37.369Z,13.45
2022-12-17T09:18:22.858Z,13.63
2022-12-17T09:21:12.817Z,13.92
2022-12-17T09:24:17.724Z,13.88
2022-12-17T09:27:03.130Z,14.00
2022-12-17T09:29:48.254Z,13.99
2022-12-17T09:32:33.343Z,14.12
2022-12-17T09:35:18.339Z,13.77
2022-12-17T09:38:10.474Z,13.57
2022-12-17T09:40:55.741Z,13.62
2022-12-17T09:43:56.142Z,14.17
2022-12-17T09:47:03.774Z,14.47
2022-12-17T09:49:49.009Z,14.53
2022-12-17T09:52:37.009Z,14.79
2022-12-17T09:55:32.174Z,14.46
2022-12-17T09:58:17.670Z,14.57
2022-12-17T10:01:02.926Z,14.55
2022-12-17T10:03:48.782Z,14.46
2022-12-17T10:06:41.005Z,14.76
2022-12-17T10:09:32.740Z,14.66
2022-12-17T10:12:33.422Z,14.49
2022-12-17T10:15:18.802Z,14.64
2022-12-17T10:18:04.219Z,14.62
2022-12-17T10:21:13.856Z,14.93
2022-12-17T10:23:59.185Z,15.61
2022-12-17T10:26:46.939Z,16.01
2022-12-17T10:29:35.124Z,15.99
2022-12-17T10:32:35.318Z,16.34
2022-12-17T10:35:42.306Z,16.20
2022-12-17T10:38:36.370Z,16.51
2022-12-17T10:41:39.743Z,16.28
2022-12-17T10:44:47.639Z,16.17
2022-12-17T10:47:38.339Z,16.75
2022-12-17T10:50:29.107Z,16.30
2022-12-17T10:53:14.707Z,16.05
2022-12-17T10:56:14.825Z,16.37
2022-12-17T10:59:08.958Z,16.06
2022-12-17T11:01:57.882Z,15.80
2022-12-17T11:04:55.580Z,15.73
2022-12-17T11:07:46.579Z,15.55
2022-12-17T11:10:39.057Z,15.96
2022-12-17T11:13:30.075Z,15.67
2022-12-17T11:16:17.546Z,15.57
2022-12-17T11:19:33.984Z,15.85
2022-12-17T11:22:24.467Z,15.76
2022-12-17T11:25:41.916Z,15.86
2022-12-17T11:28:43.534Z,16.71
2022-12-17T11:31:56.515Z,16.61
2022-12-17T11:34:50.033Z,16.73
2022-12-17T11:37:47.993Z,16.79
2022-12-17T11:40:42.438Z,16.44
2022-12-17T11:43:46.332Z,16.96
2022-12-17T11:46:40.291Z,17.09
2022-12-17T11:49:28.355Z,17.25
2022-12-17T11:52:29.509Z,17.68
2022-12-17T11:55:33.764Z,17.31
2022-12-17T11:58:28.745Z,17.31
2022-12-17T12:01:28.322Z,18.04
2022-12-17T12:04:24.229Z,17.83
2022-12-17T12:07:18.654Z,18.02
2022-12-17T12:10:14.543Z,18.19
2022-12-17T12:13:25.935Z,18.09
2022-12-17T12:16:45.133Z,18.44
2022-12-17T12:19:50.530Z,18.47
2022-12-17T12:22:50.006Z,17.95
2022-12-17T12:25:38.043Z,17.99
2022-12-17T12:29:05.958Z,18.00
2022-12-17T12:32:05.949Z,18.34
2022-12-17T12:34:56.101Z,18.19
2022-12-17T12:37:47.465Z,17.91
2022-12-17T12:40:37.899Z,18.47
2022-12-17T12:43:43.816Z,18.74
2022-12-17T12:46:51.358Z,18.96
2022-12-17T12:49:56.640Z,18.74
2022-12-17T12:52:45.181Z,18.21
2022-12-17T12:55:31.487Z,17.91
2022-12-17T12:58:22.325Z,17.72
2022-12-17T13:01:07.326Z,17.54
2022-12-17T13:04:03.271Z,17.58
2022-12-17T13:06:54.057Z,17.58
2022-12-17T13:09:35.255Z,17.67
2022-12-17T13:12:04.939Z,17.63
2022-12-17T13:15:16.975Z,17.50
2022-12-17T13:18:21.207Z,17.53
2022-12-17T13:21:17.106Z,17.57
2022-12-17T13:23:44.298Z,17.69
2022-12-17T13:26:15.862Z,17.63
2022-12-17T13:28:48.036Z,17.54
2022-12-17T13:31:26.597Z,17.51
2022-12-17T13:34:08.798Z,17.38
2022-12-17T13:36:57.834Z,17.37
2022-12-17T13:39:51.584Z,17.29
2022-12-17T13:42:24.493Z,17.26
2022-12-17T13:44:54.318Z,17.29
2022-12-17T13:47:24.359Z,17.29
2022-12-17T13:50:31.532Z,17.17
2022-12-17T13:52:42.931Z,17.16
2022-12-17T13:55:18.534Z,17.19
2022-12-17T13:57:46.559Z,17.20
2022-12-17T14:00:39.604Z,17.46
2022-12-17T14:03:12.137Z,17.33
2022-12-17T14:05:43.503Z,17.19
2022-12-17T14:08:16.370Z,17.34
2022-12-17T14:10:51.290Z,17.50
2022-12-17T14:13:18.844Z,17.65
2022-12-17T14:15:48.955Z,17.83
2022-12-17T14:18:20.773Z,17.80
2022-12-17T14:20:49.784Z,17.49
2022-12-17T14:23:28.814Z,17.59
2022-12-17T14:25:55.663Z,17.47
2022-12-17T14:28:22.262Z,17.51
2022-12-17T14:31:25.662Z,17.66
2022-12-17T14:33:37.938Z,17.71
2022-12-17T14:36:08.561Z,17.58
2022-12-17T14:38:38.832Z,17.75
2022-12-17T14:41:31.388Z,17.70
2022-12-17T14:43:59.986Z,17.30
2022-12-17T14:46:28.510Z,17.32
2022-12-17T14:49:03.672Z,17.22
2022-12-17T14:51:36.443Z,17.31
2022-12-17T14:54:31.634Z,17.17
2022-12-17T14:57:00.135Z,17.35
2022-12-17T14:59:34.315Z,17.11
2022-12-17T15:02:10.701Z,17.13
2022-12-17T15:04:39.394Z,17.29
2022-12-17T15:07:10.845Z,17.18
2022-12-17T15:09:42.077Z,16.85
2022-12-17T15:12:09.756Z,17.05
2022-12-17T15:14:36.427Z,17.14
2022-12-17T15:17:03.312Z,17.14
2022-12-17T15:19:29.986Z,16.54
2022-12-17T15:21:56.728Z,16.35
2022-12-17T15:24:23.421Z,16.28
2022-12-17T15:26:50.358Z,16.36
2022-12-17T15:29:17.003Z,16.55
2022-12-17T15:31:43.731Z,16.65
2022-12-17T15:34:11.786Z,16.65
2022-12-17T15:36:38.910Z,16.76
2022-12-17T15:39:07.202Z,16.73
2022-12-17T15:41:52.814Z,16.84
2022-12-17T15:44:19.537Z,17.07
2022-12-17T15:46:46.209Z,17.16
2022-12-17T15:49:12.941Z,17.01
2022-12-17T15:51:39.623Z,16.87
2022-12-17T15:54:06.295Z,16.89
2022-12-17T15:56:34.851Z,16.81
2022-12-17T15:59:01.543Z,16.79
2022-12-17T16:01:28.454Z,16.73
2022-12-17T16:03:55.400Z,16.43
2022-12-17T16:06:22.200Z,16.29
2022-12-17T16:08:48.913Z,16.31
2022-12-17T16:11:16.235Z,16.18
2022-12-17T16:13:43.469Z,15.97
2022-12-17T16:16:10.454Z,15.90
2022-12-17T16:18:38.962Z,15.90
2022-12-17T16:21:08.378Z,15.69
2022-12-17T16:23:35.667Z,15.86
2022-12-17T16:26:05.031Z,15.78
2022-12-17T16:28:32.385Z,15.71
2022-12-17T16:30:59.034Z,15.85
2022-12-17T16:33:27.143Z,15.89
2022-12-17T16:35:56.532Z,15.95
2022-12-17T16:38:23.224Z,15.92
2022-12-17T16:40:49.962Z,15.93
2022-12-17T16:43:16.709Z,15.54
2022-12-17T16:45:49.302Z,15.59
2022-12-17T16:48:17.585Z,15.67
2022-12-17T16:50:45.004Z,15.73
2022-12-17T16:53:12.642Z,15.64
2022-12-17T16:55:45.191Z,15.57
2022-12-17T16:58:12.155Z,15.69
2022-12-17T17:00:39.283Z,15.73
2022-12-17T17:03:07.696Z,15.58
2022-12-17T17:05:39.751Z,15.53
2022-12-17T17:08:06.944Z,15.65
2022-12-17T17:10:35.969Z,15.73
2022-12-17T17:13:02.668Z,15.67
2022-12-17T17:15:29.479Z,15.79
2022-12-17T17:18:01.489Z,15.76
2022-12-17T17:20:32.440Z,15.59
2022-12-17T17:23:00.134Z,15.58
2022-12-17T17:25:38.794Z,15.53
2022-12-17T17:28:13.733Z,15.38
2022-12-17T17:30:40.423Z,15.49
2022-12-17T17:33:07.076Z,15.48
2022-12-17T17:35:33.805Z,15.35
2022-12-17T17:38:01.055Z,15.05
2022-12-17T17:40:27.704Z,15.06
2022-12-17T17:42:54.308Z,15.04
2022-12-17T17:45:20.958Z,14.84
2022-12-17T17:47:47.563Z,14.87
2022-12-17T17:50:14.246Z,14.58
2022-12-17T17:52:40.880Z,14.74
2022-12-17T17:55:07.927Z,14.88
2022-12-17T17:57:34.786Z,14.63
2022-12-17T18:00:01.557Z,14.56
2022-12-17T18:02:28.641Z,14.77
2022-12-17T18:04:55.437Z,14.63
2022-12-17T18:07:26.723Z,14.42
2022-12-17T18:09:54.513Z,14.45
2022-12-17T18:12:40.232Z,14.19
2022-12-17T18:15:16.397Z,13.80
2022-12-17T18:17:45.527Z,13.63
2022-12-17T18:20:13.199Z,13.26
2022-12-17T18:22:40.377Z,13.09
2022-12-17T18:25:07.193Z,13.12
2022-12-17T18:27:33.853Z,13.18
2022-12-17T18:30:00.786Z,13.02
2022-12-17T18:32:27.670Z,12.96
2022-12-17T18:34:54.407Z,12.99
2022-12-17T18:37:21.116Z,12.98
2022-12-17T18:39:49.179Z,13.00
2022-12-17T18:42:34.475Z,12.90
2022-12-17T18:45:01.214Z,12.80
2022-12-17T18:47:28.026Z,12.65
2022-12-17T18:49:54.687Z,12.54
2022-12-17T18:52:23.683Z,12.47
2022-12-17T18:54:50.355Z,12.43
2022-12-17T18:57:17.288Z,12.36
2022-12-17T18:59:44.013Z,12.48
2022-12-17T19:02:12.636Z,12.60
2022-12-17T19:04:39.981Z,12.71
2022-12-17T19:07:07.173Z,12.67
2022-12-17T19:09:39.551Z,12.55
2022-12-17T19:12:08.586Z,12.70
2022-12-17T19:14:35.584Z,12.74
2022-12-17T19:17:02.830Z,12.84
2022-12-17T19:19:29.914Z,12.98
2022-12-17T19:21:56.998Z,12.93
2022-12-17T19:24:23.899Z,12.94
2022-12-17T19:26:51.646Z,12.86
2022-12-17T19:29:20.623Z,12.74
2022-12-17T19:31:48.003Z,12.70
2022-12-17T19:34:16.847Z,12.88
2022-12-17T19:36:44.400Z,12.88
2022-12-17T19:39:14.639Z,12.97
2022-12-17T19:41:41.644Z,12.84
2022-12-17T19:44:12.078Z,12.86
2022-12-17T19:46:38.978Z,12.94
2022-12-17T19:49:06.025Z,12.92
2022-12-17T19:51:32.953Z,12.99
2022-12-17T19:54:06.516Z,12.90
2022-12-17T19:56:35.225Z,12.91
2022-12-17T19:59:07.175Z,13.14
2022-12-17T20:01:37.119Z,13.14
2022-12-17T20:04:05.283Z,13.03
2022-12-17T20:06:34.191Z,12.96
2022-12-17T20:09:03.953Z,13.14
2022-12-17T20:11:33.468Z,13.29
2022-12-17T20:14:13.692Z,13.28
2022-12-17T20:16:54.563Z,13.40
2022-12-17T20:19:24.265Z,13.07
2022-12-17T20:21:51.609Z,12.94
2022-12-17T20:24:19.206Z,12.64
2022-12-17T20:26:49.778Z,12.43
2022-12-17T20:29:16.835Z,12.31
2022-12-17T20:31:49.448Z,12.34
2022-12-17T20:34:18.835Z,12.39
2022-12-17T20:36:45.588Z,12.45
2022-12-17T20:39:12.709Z,12.44
2022-12-17T20:41:40.314Z,12.50
2022-12-17T20:44:11.075Z,12.67
2022-12-17T20:46:41.082Z,12.53
2022-12-17T20:49:08.410Z,12.48
2022-12-17T20:51:35.538Z,12.64
2022-12-17T20:54:03.716Z,12.47
2022-12-17T20:56:32.836Z,12.49
2022-12-17T20:59:03.969Z,12.65
2022-12-17T21:01:32.662Z,12.69
2022-12-17T21:04:00.912Z,12.74
2022-12-17T21:06:32.326Z,12.83
2022-12-17T21:08:59.259Z,12.94
2022-12-17T21:11:29.293Z,12.90
2022-12-17T21:13:56.764Z,12.78
2022-12-17T21:16:29.027Z,12.99
2022-12-17T21:18:56.884Z,13.00
2022-12-17T21:21:25.950Z,13.04
2022-12-17T21:23:53.184Z,12.96
2022-12-17T21:26:31.525Z,12.85
2022-12-17T21:28:59.546Z,12.86
2022-12-17T21:31:27.872Z,12.90
2022-12-17T21:33:57.672Z,12.92
2022-12-17T21:36:26.871Z,12.74
2022-12-17T21:38:54.203Z,12.58
2022-12-17T21:41:23.691Z,12.70
2022-12-17T21:44:01.930Z,12.73
2022-12-17T21:46:29.329Z,12.52
2022-12-17T21:49:00.816Z,12.48
2022-12-17T21:51:29.100Z,12.42
2022-12-17T21:54:01.263Z,12.45
2022-12-17T21:56:29.264Z,12.38
2022-12-17T21:58:58.485Z,12.39
2022-12-17T22:01:32.081Z,12.46
2022-12-17T22:04:01.257Z,12.46
2022-12-17T22:06:35.375Z,12.22
2022-12-17T22:09:14.845Z,12.09
2022-12-17T22:11:46.140Z,12.35
2022-12-17T22:14:20.406Z,12.22
2022-12-17T22:16:49.709Z,12.21
2022-12-17T22:19:22.497Z,12.20
2022-12-17T22:21:51.007Z,12.26
2022-12-17T22:24:22.646Z,12.35
2022-12-17T22:26:49.308Z,12.05
2022-12-17T22:29:36.339Z,11.84
2022-12-17T22:32:21.751Z,11.91
2022-12-17T22:36:20.191Z,11.69
2022-12-17T22:41:27.955Z,11.67
2022-12-17T22:44:21.625Z,11.53
2022-12-17T22:44:42.467Z,11.63
2022-12-17T22:46:19.083Z,11.78
2022-12-17T22:48:45.835Z,11.79
2022-12-17T22:51:15.724Z,11.74
2022-12-17T22:53:47.247Z,11.75
2022-12-17T22:56:27.422Z,11.58
2022-12-17T22:59:01.018Z,11.55
2022-12-17T23:01:28.152Z,11.69
2022-12-17T23:03:59.881Z,11.67
2022-12-17T23:06:28.115Z,11.76
2022-12-17T23:08:55.016Z,11.60
2022-12-17T23:11:24.114Z,11.61
2022-12-17T23:13:51.793Z,11.65
2022-12-17T23:16:18.695Z,11.63
2022-12-17T23:18:46.830Z,11.70
2022-12-17T23:21:23.896Z,11.72
2022-12-17T23:23:55.143Z,11.89
2022-12-17T23:26:25.861Z,11.89
2022-12-17T23:28:55.184Z,11.81
2022-12-17T23:31:22.214Z,11.87
2022-12-17T23:33:49.056Z,11.92
2022-12-17T23:36:18.981Z,11.85
2022-12-17T23:38:46.813Z,11.74
2022-12-17T23:41:18.772Z,11.65
2022-12-17T23:43:46.287Z,11.60
2022-12-17T23:46:13.890Z,11.59
2022-12-17T23:48:45.587Z,11.54
2022-12-17T23:51:14.963Z,11.27
2022-12-17T23:53:42.611Z,11.34
2022-12-17T23:56:12.806Z,11.53
2022-12-17T23:58:40.708Z,11.65
